Time;durP1;ratioP1;P1;durP2;ratioP2;P2;SDS_P1;SDS_P2;PMS_P1;PMS_P2;Temp;Humidity;BMP_temperature;BMP_pressure;BME280_temperature;BME280_humidity;BME280_pressure;Samples;Min_cycle;Max_cycle;Signal;HPM_P1;HPM_P2
2023/09/27 00:01:01;;;;;;;5.53;4.18;;;15.40;99.90;;;;;;5031991;28;20030;-74
2023/09/27 00:03:28;;;;;;;8.40;5.00;;;15.30;99.90;;;;;;5032080;28;20041;-74
2023/09/27 00:05:54;;;;;;;6.20;4.75;;;15.20;99.90;;;;;;5053871;28;20025;-74
2023/09/27 00:08:20;;;;;;;7.38;4.90;;;15.20;99.90;;;;;;5053047;28;20037;-73
2023/09/27 00:10:46;;;;;;;6.97;4.25;;;15.10;99.90;;;;;;5052969;28;20045;-74
2023/09/27 00:13:11;;;;;;;10.77;4.78;;;15.20;99.90;;;;;;5033268;28;20060;-73
2023/09/27 00:15:37;;;;;;;5.93;3.75;;;15.20;99.90;;;;;;5052721;28;20018;-74
2023/09/27 00:18:09;;;;;;;6.78;4.20;;;15.20;99.90;;;;;;5034709;28;20021;-75
2023/09/27 00:20:37;;;;;;;9.48;4.60;;;15.10;99.90;;;;;;5052899;28;20021;-73
2023/09/27 00:23:03;;;;;;;7.32;4.50;;;15.20;99.90;;;;;;5052088;28;20037;-73
2023/09/27 00:25:28;;;;;;;10.90;4.65;;;15.20;99.90;;;;;;5035500;28;20056;-74
2023/09/27 00:27:54;;;;;;;7.40;4.45;;;15.10;99.90;;;;;;5029608;28;20045;-74
2023/09/27 00:30:21;;;;;;;5.68;4.53;;;15.10;99.90;;;;;;5052691;28;20064;-73
2023/09/27 00:32:46;;;;;;;9.90;4.97;;;15.10;99.90;;;;;;5052664;28;20018;-74
2023/09/27 00:35:22;;;;;;;10.43;4.47;;;15.10;99.90;;;;;;5034670;28;20013;-74
2023/09/27 00:37:49;;;;;;;7.03;4.32;;;15.10;99.90;;;;;;5031581;28;20017;-73
2023/09/27 00:40:18;;;;;;;7.32;4.65;;;15.10;99.90;;;;;;5052883;28;20089;-74
2023/09/27 00:42:44;;;;;;;7.68;4.32;;;15.10;99.90;;;;;;5034728;28;20033;-74
2023/09/27 00:45:12;;;;;;;4.90;4.22;;;15.10;99.90;;;;;;5030844;28;20055;-74
2023/09/27 00:47:37;;;;;;;8.18;4.07;;;15.00;99.90;;;;;;5052431;28;20029;-74
2023/09/27 00:50:04;;;;;;;7.32;4.65;;;15.00;99.90;;;;;;5034850;28;20089;-74
2023/09/27 00:52:30;;;;;;;7.72;4.07;;;14.90;99.90;;;;;;5051978;28;20052;-73
2023/09/27 00:54:58;;;;;;;15.50;4.93;;;14.90;99.90;;;;;;5051695;28;20021;-74
2023/09/27 00:57:24;;;;;;;4.47;3.95;;;14.80;99.90;;;;;;5051545;28;20021;-74
2023/09/27 00:59:50;;;;;;;4.90;4.05;;;14.70;99.90;;;;;;5033409;28;20045;-73
2023/09/27 01:02:17;;;;;;;6.23;4.50;;;14.60;99.90;;;;;;5034773;28;20028;-73
2023/09/27 01:04:45;;;;;;;8.50;3.97;;;14.70;99.90;;;;;;5051865;28;20026;-73
2023/09/27 01:07:13;;;;;;;5.80;4.43;;;14.60;99.90;;;;;;5052096;28;20041;-74
2023/09/27 01:09:38;;;;;;;9.35;3.92;;;14.70;99.90;;;;;;5051176;28;20220;-74
2023/09/27 01:12:07;;;;;;;8.38;4.65;;;14.70;99.90;;;;;;5033600;28;20017;-74
2023/09/27 01:14:33;;;;;;;10.63;5.03;;;14.70;99.90;;;;;;5033291;28;20022;-74
2023/09/27 01:17:09;;;;;;;7.72;4.93;;;14.70;99.90;;;;;;5028932;28;20036;-75
2023/09/27 01:19:35;;;;;;;7.40;5.00;;;14.50;99.90;;;;;;5052321;28;20077;-73
2023/09/27 01:22:04;;;;;;;7.32;4.10;;;14.50;99.90;;;;;;5052425;28;20040;-74
2023/09/27 01:24:32;;;;;;;7.43;5.33;;;14.50;99.90;;;;;;5051614;28;20075;-74
2023/09/27 01:26:59;;;;;;;8.10;4.97;;;14.40;99.90;;;;;;5045598;28;20227;-74
2023/09/27 01:29:25;;;;;;;6.87;4.73;;;14.50;99.90;;;;;;5051497;28;20029;-73
2023/09/27 01:31:55;;;;;;;8.87;4.60;;;14.40;99.90;;;;;;5029954;28;20028;-73
2023/09/27 01:34:23;;;;;;;7.83;4.53;;;14.30;99.90;;;;;;5030529;28;20017;-73
2023/09/27 01:36:51;;;;;;;7.97;4.80;;;14.40;99.90;;;;;;5029986;28;20021;-74
2023/09/27 01:39:19;;;;;;;9.03;4.40;;;14.40;99.90;;;;;;5032431;28;20014;-74
2023/09/27 01:41:44;;;;;;;10.27;4.80;;;14.40;99.90;;;;;;5051922;28;20048;-74
2023/09/27 01:44:12;;;;;;;9.38;4.63;;;14.40;99.90;;;;;;5033034;28;20037;-73
2023/09/27 01:46:41;;;;;;;5.83;4.80;;;14.40;99.90;;;;;;5029693;28;20041;-74
2023/09/27 01:49:07;;;;;;;8.83;4.13;;;14.30;99.90;;;;;;5051379;28;20021;-74
2023/09/27 01:51:32;;;;;;;9.80;5.57;;;14.20;99.90;;;;;;5052244;28;20022;-73
2023/09/27 01:53:58;;;;;;;6.63;5.22;;;14.20;99.90;;;;;;5052040;28;20018;-77
2023/09/27 01:56:24;;;;;;;6.28;4.47;;;14.20;99.90;;;;;;5029992;28;20022;-74
2023/09/27 01:58:49;;;;;;;7.35;5.22;;;14.20;99.90;;;;;;5033924;28;20030;-74
2023/09/27 02:01:17;;;;;;;7.93;5.20;;;14.20;99.90;;;;;;5030172;28;20036;-73
2023/09/27 02:03:42;;;;;;;7.20;4.67;;;14.20;99.90;;;;;;5046275;28;20045;-74
2023/09/27 02:06:13;;;;;;;8.50;5.22;;;14.20;99.90;;;;;;5051782;28;20021;-74
2023/09/27 02:08:41;;;;;;;5.90;4.40;;;14.20;99.90;;;;;;5047171;28;20028;-74
2023/09/27 02:11:06;;;;;;;10.60;4.83;;;14.20;99.90;;;;;;5051557;28;20017;-75
2023/09/27 02:13:34;;;;;;;5.63;4.03;;;14.20;99.90;;;;;;5051945;28;20025;-73
2023/09/27 02:16:00;;;;;;;5.17;4.53;;;14.10;99.90;;;;;;5028530;28;20085;-76
2023/09/27 02:18:25;;;;;;;7.77;4.87;;;14.00;99.90;;;;;;5034975;28;20028;-73
2023/09/27 02:20:51;;;;;;;9.33;4.80;;;14.00;99.90;;;;;;5051967;28;20041;-74
2023/09/27 02:23:16;;;;;;;6.67;4.33;;;14.00;99.90;;;;;;5051258;28;20037;-74
2023/09/27 02:25:42;;;;;;;6.38;4.65;;;14.00;99.90;;;;;;5051802;28;20110;-74
2023/09/27 02:28:10;;;;;;;8.20;4.23;;;13.90;99.90;;;;;;5051958;28;20017;-75
2023/09/27 02:30:38;;;;;;;8.47;4.93;;;14.00;99.90;;;;;;5028984;28;20017;-74
2023/09/27 02:33:05;;;;;;;10.00;4.77;;;14.00;99.90;;;;;;5033116;28;20061;-74
2023/09/27 02:35:31;;;;;;;7.60;4.80;;;14.00;99.90;;;;;;5051541;28;20021;-74
2023/09/27 02:37:57;;;;;;;10.97;4.63;;;14.00;99.90;;;;;;5050985;28;20018;-74
2023/09/27 02:40:22;;;;;;;9.03;4.70;;;13.90;99.90;;;;;;5031828;28;20022;-74
2023/09/27 02:42:48;;;;;;;7.37;4.47;;;13.90;99.90;;;;;;5050186;28;20036;-73
2023/09/27 02:45:16;;;;;;;9.83;4.40;;;13.90;99.90;;;;;;5033149;28;20033;-74
2023/09/27 02:47:45;;;;;;;7.37;3.80;;;13.80;99.90;;;;;;5054687;28;20021;-74
2023/09/27 02:50:12;;;;;;;7.80;4.13;;;13.80;99.90;;;;;;5037040;28;20056;-74
2023/09/27 02:52:40;;;;;;;9.20;4.83;;;13.80;99.90;;;;;;5037974;28;20017;-74
2023/09/27 02:55:08;;;;;;;7.23;4.73;;;13.80;99.90;;;;;;5036464;28;20068;-74
2023/09/27 02:57:34;;;;;;;11.33;5.47;;;13.80;99.90;;;;;;5054896;28;20040;-75
2023/09/27 03:00:00;;;;;;;6.77;5.00;;;13.80;99.90;;;;;;5055495;28;20021;-73
2023/09/27 03:02:28;;;;;;;10.93;6.10;;;13.70;99.90;;;;;;5035935;28;20036;-74
2023/09/27 03:04:53;;;;;;;10.13;5.47;;;13.70;99.90;;;;;;5054053;28;20022;-74
2023/09/27 03:07:23;;;;;;;7.70;5.33;;;13.70;99.90;;;;;;5037849;28;20028;-74
2023/09/27 03:09:51;;;;;;;15.07;5.67;;;13.70;99.90;;;;;;5037750;28;20014;-74
2023/09/27 03:12:17;;;;;;;7.80;4.37;;;13.70;99.90;;;;;;5054872;28;20014;-74
2023/09/27 03:14:45;;;;;;;10.83;4.97;;;13.70;99.90;;;;;;5055387;28;20036;-75
2023/09/27 03:17:10;;;;;;;8.73;5.40;;;13.60;99.90;;;;;;5054748;28;20017;-74
2023/09/27 03:19:36;;;;;;;8.17;5.40;;;13.60;99.90;;;;;;5054831;28;20057;-73
2023/09/27 03:22:04;;;;;;;6.53;4.90;;;13.60;99.90;;;;;;5035698;28;20085;-74
2023/09/27 03:24:30;;;;;;;6.00;4.80;;;13.60;99.90;;;;;;5054991;28;20056;-77
2023/09/27 03:26:57;;;;;;;6.97;5.33;;;13.60;99.90;;;;;;5053795;28;20044;-74
2023/09/27 03:29:23;;;;;;;10.27;5.47;;;13.60;99.90;;;;;;5055262;28;20049;-75
2023/09/27 03:31:49;;;;;;;12.87;5.70;;;13.60;99.90;;;;;;5055096;28;20037;-74
2023/09/27 03:34:15;;;;;;;7.77;5.20;;;13.60;99.90;;;;;;5054081;28;20068;-73
2023/09/27 03:36:43;;;;;;;9.63;5.30;;;13.60;99.90;;;;;;5054784;28;20073;-75
2023/09/27 03:39:11;;;;;;;11.23;5.40;;;13.60;99.90;;;;;;5035376;28;20014;-75
2023/09/27 03:41:38;;;;;;;7.90;5.93;;;13.60;99.90;;;;;;5053580;28;20014;-74
2023/09/27 03:44:05;;;;;;;7.23;5.87;;;13.60;99.90;;;;;;5036555;28;20046;-74
2023/09/27 03:46:33;;;;;;;7.43;5.13;;;13.60;99.90;;;;;;5054736;28;20041;-74
2023/09/27 03:48:58;;;;;;;7.37;6.33;;;13.60;99.90;;;;;;5034987;28;20037;-73
2023/09/27 03:51:27;;;;;;;8.80;6.57;;;13.60;99.90;;;;;;5054881;28;20064;-74
2023/09/27 03:53:52;;;;;;;7.90;6.03;;;13.60;99.90;;;;;;5053420;28;20045;-74
2023/09/27 03:56:20;;;;;;;15.03;7.13;;;13.60;99.90;;;;;;5054694;28;20127;-74
2023/09/27 03:58:46;;;;;;;8.07;6.13;;;13.60;99.90;;;;;;5053724;28;20036;-73
2023/09/27 04:01:12;;;;;;;8.33;6.53;;;13.60;99.90;;;;;;5054094;28;20026;-74
2023/09/27 04:03:38;;;;;;;11.90;6.80;;;13.60;99.90;;;;;;5053906;28;20042;-74
2023/09/27 04:06:03;;;;;;;10.13;7.17;;;13.60;99.90;;;;;;5034805;28;20030;-74
2023/09/27 04:08:29;;;;;;;10.53;7.00;;;13.70;99.90;;;;;;5053421;28;20035;-73
2023/09/27 04:10:54;;;;;;;10.63;7.50;;;13.70;99.90;;;;;;5048936;28;20037;-74
2023/09/27 04:13:20;;;;;;;9.07;6.53;;;13.60;99.90;;;;;;5036551;28;20029;-74
2023/09/27 04:15:49;;;;;;;13.63;8.47;;;13.70;99.90;;;;;;5036095;28;20033;-73
2023/09/27 04:18:14;;;;;;;10.00;7.60;;;13.60;99.90;;;;;;5035682;28;20089;-74
2023/09/27 04:20:40;;;;;;;11.07;8.00;;;13.60;99.90;;;;;;5036361;28;20028;-74
2023/09/27 04:23:06;;;;;;;12.20;7.10;;;13.70;99.90;;;;;;5053623;28;20289;-73
2023/09/27 04:25:31;;;;;;;10.43;7.17;;;13.60;99.90;;;;;;5031749;28;20045;-73
2023/09/27 04:27:57;;;;;;;10.77;7.40;;;13.70;99.90;;;;;;5048754;28;20022;-75
2023/09/27 04:30:24;;;;;;;10.77;7.00;;;13.60;99.90;;;;;;5033915;28;20124;-74
2023/09/27 04:32:50;;;;;;;13.77;8.13;;;13.60;99.90;;;;;;5034077;28;20029;-74
2023/09/27 04:35:16;;;;;;;10.70;7.40;;;13.60;99.90;;;;;;5053095;28;20017;-74
2023/09/27 04:37:42;;;;;;;12.27;7.60;;;13.50;99.90;;;;;;5035362;28;20029;-74
2023/09/27 04:40:13;;;;;;;13.13;7.87;;;13.50;99.90;;;;;;5035081;28;20028;-74
2023/09/27 04:42:43;;;;;;;13.57;8.93;;;13.40;99.90;;;;;;5035623;28;20018;-74
2023/09/27 04:45:13;;;;;;;14.27;8.67;;;13.40;99.90;;;;;;5048560;28;20096;-74
2023/09/27 04:47:44;;;;;;;12.90;8.40;;;13.30;99.90;;;;;;5031846;28;20028;-74
2023/09/27 04:50:12;;;;;;;17.00;8.23;;;13.30;99.90;;;;;;5035792;28;20033;-76
2023/09/27 04:52:39;;;;;;;12.20;7.37;;;13.30;99.90;;;;;;5053862;28;20041;-73
2023/09/27 04:55:08;;;;;;;10.33;6.47;;;13.40;99.90;;;;;;5035495;28;20087;-74
2023/09/27 04:57:36;;;;;;;9.73;7.13;;;13.30;99.90;;;;;;5032225;28;20029;-74
2023/09/27 05:00:13;;;;;;;12.00;7.93;;;13.30;99.90;;;;;;5052877;28;20018;-74
2023/09/27 05:02:39;;;;;;;9.00;7.23;;;13.30;99.90;;;;;;5049550;28;20112;-77
2023/09/27 05:05:05;;;;;;;11.77;7.57;;;13.20;99.90;;;;;;5035754;28;20033;-74
2023/09/27 05:07:33;;;;;;;15.70;9.50;;;13.30;99.90;;;;;;5031298;28;20072;-74
2023/09/27 05:09:59;;;;;;;12.37;8.17;;;13.20;99.90;;;;;;5029324;28;20017;-74
2023/09/27 05:12:25;;;;;;;11.97;7.67;;;13.20;99.90;;;;;;5052680;28;20044;-76
2023/09/27 05:14:52;;;;;;;12.33;7.77;;;13.20;99.90;;;;;;5052641;28;20029;-74
2023/09/27 05:17:20;;;;;;;10.97;7.20;;;13.20;99.90;;;;;;5052472;28;20009;-74
2023/09/27 05:19:48;;;;;;;11.00;7.80;;;13.20;99.90;;;;;;5052436;28;20029;-74
2023/09/27 05:22:24;;;;;;;13.47;8.83;;;13.20;99.90;;;;;;5029704;28;20029;-73
2023/09/27 05:24:49;;;;;;;8.90;7.10;;;13.20;99.90;;;;;;5051205;28;20033;-74
2023/09/27 05:27:15;;;;;;;10.13;6.73;;;13.20;99.90;;;;;;5052632;28;20009;-74
2023/09/27 05:29:41;;;;;;;24.00;8.77;;;13.20;99.90;;;;;;5035494;28;20095;-74
2023/09/27 05:32:07;;;;;;;11.13;6.50;;;13.20;99.90;;;;;;5034059;28;20044;-74
2023/09/27 05:34:34;;;;;;;12.60;7.63;;;13.20;99.90;;;;;;5046358;28;20093;-74
2023/09/27 05:37:00;;;;;;;9.43;7.00;;;13.20;99.90;;;;;;5031228;28;20021;-74
2023/09/27 05:39:28;;;;;;;11.33;7.70;;;13.10;99.90;;;;;;5052584;28;20020;-73
2023/09/27 05:41:56;;;;;;;13.47;8.00;;;13.20;99.90;;;;;;5035017;28;20604;-74
2023/09/27 05:44:21;;;;;;;17.57;9.20;;;13.20;99.90;;;;;;5051655;28;20032;-74
2023/09/27 05:46:47;;;;;;;14.13;9.30;;;13.20;99.90;;;;;;5052675;28;20009;-74
2023/09/27 05:49:14;;;;;;;17.30;9.63;;;13.30;99.90;;;;;;5053311;28;20026;-75
2023/09/27 05:51:41;;;;;;;15.93;9.87;;;13.30;99.90;;;;;;5029456;28;20025;-75
2023/09/27 05:54:07;;;;;;;16.00;9.67;;;13.30;99.90;;;;;;5051797;28;20017;-73
2023/09/27 05:56:38;;;;;;;12.87;9.87;;;13.30;99.90;;;;;;5034378;28;20033;-74
2023/09/27 05:59:12;;;;;;;15.20;10.75;;;13.40;99.90;;;;;;5033329;28;20029;-73
2023/09/27 06:01:41;;;;;;;10.40;8.13;;;13.50;99.90;;;;;;5034779;28;20071;-73
2023/09/27 06:04:07;;;;;;;13.17;8.77;;;13.50;99.90;;;;;;5046907;28;20041;-73
2023/09/27 06:06:36;;;;;;;17.53;10.40;;;13.50;99.90;;;;;;5052243;28;20018;-73
2023/09/27 06:09:09;;;;;;;15.97;10.00;;;13.60;99.90;;;;;;5049888;28;20041;-74
2023/09/27 06:11:38;;;;;;;12.00;9.37;;;13.70;99.90;;;;;;5051421;28;20048;-73
2023/09/27 06:14:10;;;;;;;16.98;10.35;;;13.70;99.90;;;;;;5051470;28;20034;-74
2023/09/27 06:16:37;;;;;;;17.25;9.52;;;13.70;99.90;;;;;;5030400;28;20017;-73
2023/09/27 06:19:04;;;;;;;18.70;11.73;;;13.80;99.90;;;;;;5051913;28;20040;-74
2023/09/27 06:21:30;;;;;;;15.87;10.50;;;13.80;99.90;;;;;;5036422;28;20206;-73
2023/09/27 06:23:55;;;;;;;18.55;11.35;;;13.90;99.90;;;;;;5037541;28;21131;-74
2023/09/27 06:26:21;;;;;;;19.98;12.95;;;13.90;99.90;;;;;;5031600;28;20291;-74
2023/09/27 06:28:47;;;;;;;17.60;11.10;;;13.90;99.90;;;;;;5036454;28;20029;-74
2023/09/27 06:31:13;;;;;;;11.80;8.98;;;13.90;99.90;;;;;;5052865;28;20085;-76
2023/09/27 06:33:39;;;;;;;13.70;9.13;;;14.00;99.90;;;;;;5036422;28;20092;-74
2023/09/27 06:36:10;;;;;;;16.27;9.57;;;14.00;99.90;;;;;;5054448;28;20052;-74
2023/09/27 06:38:36;;;;;;;14.68;9.50;;;14.10;99.90;;;;;;5030842;28;20044;-73
2023/09/27 06:41:02;;;;;;;16.50;10.10;;;14.10;99.90;;;;;;5031858;28;20101;-74
2023/09/27 06:43:30;;;;;;;18.88;9.95;;;14.10;99.90;;;;;;5052722;28;20048;-74
2023/09/27 06:46:01;;;;;;;15.98;9.75;;;14.10;99.90;;;;;;5053937;28;20045;-74
2023/09/27 06:48:27;;;;;;;15.73;12.38;;;14.20;99.90;;;;;;5053306;28;20029;-74
2023/09/27 06:50:53;;;;;;;16.55;8.80;;;14.20;99.90;;;;;;5053873;28;20064;-75
2023/09/27 06:53:19;;;;;;;16.02;10.02;;;14.20;99.90;;;;;;5053483;28;20017;-74
2023/09/27 06:55:44;;;;;;;14.93;10.05;;;14.20;99.90;;;;;;5053719;28;20105;-74
2023/09/27 06:58:11;;;;;;;15.07;8.95;;;14.30;99.90;;;;;;5031314;28;20025;-74
2023/09/27 07:00:42;;;;;;;13.73;9.43;;;14.30;99.90;;;;;;5035981;28;20145;-75
2023/09/27 07:03:10;;;;;;;13.07;9.57;;;14.40;99.90;;;;;;5053297;28;20056;-74
2023/09/27 07:05:36;;;;;;;15.75;9.40;;;14.40;99.90;;;;;;5035949;28;20025;-74
2023/09/27 07:08:01;;;;;;;18.25;9.90;;;14.40;99.90;;;;;;5053817;28;20026;-75
2023/09/27 07:10:27;;;;;;;13.15;9.27;;;14.40;99.90;;;;;;5034920;28;20293;-74
2023/09/27 07:12:54;;;;;;;14.25;9.80;;;14.50;99.90;;;;;;5030857;28;20044;-73
2023/09/27 07:15:20;;;;;;;14.98;9.05;;;14.50;99.90;;;;;;5035968;28;20045;-74
2023/09/27 07:17:47;;;;;;;13.65;8.65;;;14.60;99.90;;;;;;5032436;28;20025;-74
2023/09/27 07:20:27;;;;;;;13.27;8.95;;;14.60;99.90;;;;;;5034838;28;20027;-76
2023/09/27 07:22:54;;;;;;;14.73;10.10;;;14.70;99.90;;;;;;5033360;28;20041;-74
2023/09/27 07:25:21;;;;;;;14.68;10.68;;;14.70;99.90;;;;;;5053641;28;20021;-74
2023/09/27 07:27:50;;;;;;;15.70;11.10;;;14.80;99.90;;;;;;5031829;28;20026;-74
2023/09/27 07:30:23;;;;;;;12.57;9.10;;;14.80;99.90;;;;;;5053775;28;20028;-74
2023/09/27 07:32:49;;;;;;;15.10;8.85;;;14.80;99.90;;;;;;5053190;28;20021;-75
2023/09/27 07:35:16;;;;;;;14.43;8.75;;;14.90;99.90;;;;;;5053140;28;20023;-74
2023/09/27 07:37:42;;;;;;;11.27;8.32;;;15.00;99.90;;;;;;5033904;28;20028;-74
2023/09/27 07:40:10;;;;;;;14.07;9.45;;;15.00;99.90;;;;;;5069463;28;20017;-74
2023/09/27 07:42:39;;;;;;;15.07;9.32;;;15.10;99.90;;;;;;5047636;28;20057;-74
2023/09/27 07:45:14;;;;;;;17.20;9.25;;;15.10;99.90;;;;;;5047039;28;20063;-74
2023/09/27 07:47:42;;;;;;;17.40;10.55;;;15.10;99.90;;;;;;5053753;28;20009;-74
2023/09/27 07:50:10;;;;;;;16.27;10.27;;;15.10;99.90;;;;;;5035097;28;20022;-74
2023/09/27 07:52:39;;;;;;;14.52;8.98;;;15.20;99.90;;;;;;5047080;28;20025;-75
2023/09/27 07:55:10;;;;;;;18.45;10.70;;;15.20;99.90;;;;;;5034248;28;20285;-74
2023/09/27 07:57:36;;;;;;;16.92;8.95;;;15.30;99.90;;;;;;5053249;28;20013;-74
2023/09/27 08:00:08;;;;;;;18.00;9.52;;;15.30;99.90;;;;;;5047513;28;20036;-74
2023/09/27 08:02:34;;;;;;;12.80;7.95;;;15.40;99.90;;;;;;5048494;28;20017;-74
2023/09/27 08:05:09;;;;;;;14.90;7.88;;;15.40;99.90;;;;;;5052193;28;20110;-74
2023/09/27 08:07:40;;;;;;;14.93;8.05;;;15.40;99.90;;;;;;5052387;28;20113;-74
2023/09/27 08:10:10;;;;;;;16.70;7.65;;;15.50;99.90;;;;;;5030528;28;20025;-74
2023/09/27 08:12:38;;;;;;;16.23;7.70;;;15.50;99.90;;;;;;5052868;28;20022;-74
2023/09/27 08:15:05;;;;;;;21.50;8.88;;;15.50;99.90;;;;;;5053824;28;20032;-74
2023/09/27 08:17:32;;;;;;;15.65;7.43;;;15.60;99.90;;;;;;5036255;28;20033;-74
2023/09/27 08:20:05;;;;;;;18.77;8.40;;;15.60;99.90;;;;;;5053198;28;20026;-74
2023/09/27 08:22:34;;;;;;;14.73;7.40;;;15.70;99.90;;;;;;5035838;28;20025;-73
2023/09/27 08:25:00;;;;;;;10.73;8.70;;;15.70;99.90;;;;;;5035476;28;20045;-74
2023/09/27 08:27:26;;;;;;;14.40;6.57;;;15.80;99.90;;;;;;5052727;28;20017;-74
2023/09/27 08:29:52;;;;;;;17.40;6.35;;;15.80;99.90;;;;;;5035432;28;20056;-74
2023/09/27 08:32:18;;;;;;;11.40;6.00;;;15.90;99.90;;;;;;5030636;28;20022;-74
2023/09/27 08:34:45;;;;;;;8.68;6.30;;;16.00;99.90;;;;;;5052876;28;20052;-74
2023/09/27 08:37:11;;;;;;;13.50;7.03;;;16.10;99.90;;;;;;5029005;28;20160;-75
2023/09/27 08:39:40;;;;;;;9.60;6.07;;;16.20;99.90;;;;;;5035895;28;20014;-74
2023/09/27 08:42:06;;;;;;;15.20;5.93;;;16.20;99.90;;;;;;5050502;28;20089;-75
2023/09/27 08:44:32;;;;;;;11.73;6.60;;;16.30;99.90;;;;;;5050487;28;20036;-74
2023/09/27 08:46:58;;;;;;;10.77;6.45;;;16.50;99.90;;;;;;5053156;28;20033;-74
2023/09/27 08:49:25;;;;;;;13.48;6.03;;;16.50;99.90;;;;;;5046660;28;20026;-74
2023/09/27 08:51:55;;;;;;;11.65;6.18;;;16.60;99.90;;;;;;5035825;28;20081;-75
2023/09/27 08:54:22;;;;;;;6.80;5.18;;;16.60;99.90;;;;;;5035771;28;20041;-74
2023/09/27 08:56:55;;;;;;;8.45;5.50;;;16.60;99.90;;;;;;5032208;28;20018;-75
2023/09/27 08:59:21;;;;;;;9.75;5.57;;;16.70;99.90;;;;;;5030252;28;20025;-74
2023/09/27 09:01:51;;;;;;;11.50;5.60;;;16.70;99.90;;;;;;5034157;28;20117;-74
2023/09/27 09:04:16;;;;;;;9.77;5.80;;;16.70;99.90;;;;;;5052467;28;20045;-75
2023/09/27 09:06:43;;;;;;;9.55;5.40;;;16.70;99.90;;;;;;5052579;28;20150;-74
2023/09/27 09:09:12;;;;;;;8.65;4.68;;;16.80;99.90;;;;;;5048477;28;20185;-75
2023/09/27 09:11:54;;;;;;;7.15;4.82;;;16.80;99.90;;;;;;5052308;28;20038;-74
2023/09/27 09:14:49;;;;;;;7.72;4.80;;;16.90;99.90;;;;;;5052993;28;20029;-74
2023/09/27 09:17:18;;;;;;;10.23;5.80;;;16.90;99.90;;;;;;5051125;28;20013;-75
2023/09/27 09:20:15;;;;;;;8.50;4.32;;;17.00;99.90;;;;;;5033420;28;20040;-74
2023/09/27 09:22:53;;;;;;;8.63;5.10;;;17.10;99.90;;;;;;5045463;28;20498;-77
2023/09/27 09:25:21;;;;;;;8.65;4.63;;;17.20;99.90;;;;;;5048792;28;20025;-75
2023/09/27 09:28:09;;;;;;;10.05;5.20;;;17.20;99.90;;;;;;5039228;28;20784;-79
2023/09/27 09:30:38;;;;;;;8.55;4.13;;;17.30;99.90;;;;;;5045714;28;20119;-75
2023/09/27 09:33:10;;;;;;;9.07;4.45;;;17.40;99.90;;;;;;5040212;28;20036;-78
2023/09/27 09:35:36;;;;;;;7.15;3.85;;;17.40;99.90;;;;;;5018999;28;20049;-80
2023/09/27 09:38:03;;;;;;;8.65;4.10;;;17.40;99.90;;;;;;5039982;28;20034;-82
2023/09/27 09:40:31;;;;;;;5.18;3.25;;;17.50;99.90;;;;;;5034833;28;20032;-78
2023/09/27 09:42:59;;;;;;;7.70;4.00;;;17.60;99.90;;;;;;5017348;28;20376;-81
2023/09/27 09:45:28;;;;;;;8.45;4.38;;;17.60;99.90;;;;;;5034157;28;20025;-76
2023/09/27 09:47:57;;;;;;;10.05;3.90;;;17.60;99.90;;;;;;5012207;28;20059;-80
2023/09/27 09:50:23;;;;;;;9.02;3.70;;;17.70;99.90;;;;;;5029342;28;20033;-81
2023/09/27 09:52:58;;;;;;;10.23;3.97;;;17.80;99.90;;;;;;5027876;28;20108;-82
2023/09/27 09:55:26;;;;;;;5.70;3.53;;;17.80;99.90;;;;;;5009178;28;20033;-87
2023/09/27 09:58:01;;;;;;;7.50;4.10;;;17.80;99.90;;;;;;5026054;28;20091;-83
2023/09/27 10:00:30;;;;;;;7.53;3.33;;;17.90;99.90;;;;;;5025235;28;20044;-85
2023/09/27 10:03:00;;;;;;;7.68;3.20;;;18.00;99.90;;;;;;5025958;28;20095;-84
2023/09/27 10:05:33;;;;;;;6.30;3.20;;;18.20;99.90;;;;;;5026382;28;20053;-85
2023/09/27 10:08:02;;;;;;;8.63;3.45;;;18.20;99.90;;;;;;5026308;28;20068;-83
2023/09/27 10:10:30;;;;;;;6.35;3.38;;;18.20;99.90;;;;;;5025244;28;20637;-84
2023/09/27 10:12:58;;;;;;;8.23;3.38;;;18.30;99.90;;;;;;5009091;28;20125;-81
2023/09/27 10:15:25;;;;;;;7.47;3.60;;;18.30;99.90;;;;;;5011028;28;20034;-80
2023/09/27 10:17:50;;;;;;;6.55;3.00;;;18.30;99.90;;;;;;5026327;28;20147;-82
2023/09/27 10:20:20;;;;;;;4.68;2.78;;;18.30;99.90;;;;;;5026882;28;20561;-87
2023/09/27 10:22:49;;;;;;;5.00;3.45;;;18.40;99.90;;;;;;5027345;28;20674;-88
2023/09/27 10:25:24;;;;;;;9.70;2.90;;;18.50;99.90;;;;;;5010100;28;20148;-85
2023/09/27 10:28:01;;;;;;;4.38;2.90;;;18.60;99.90;;;;;;5028128;28;20037;-85
2023/09/27 10:30:27;;;;;;;4.43;2.97;;;18.70;99.90;;;;;;5019846;28;20033;-84
2023/09/27 10:33:15;;;;;;;6.18;2.90;;;18.70;99.90;;;;;;5020331;28;20120;-86
2023/09/27 10:36:07;;;;;;;12.93;3.33;;;18.80;99.90;;;;;;5029815;28;20033;-86
2023/09/27 10:38:42;;;;;;;;;;;18.80;99.90;;;;;;5003832;28;20561;-83
2023/09/27 10:41:29;;;;;;;7.57;2.47;;;18.80;99.90;;;;;;5025005;28;20616;-88
2023/09/27 10:43:57;;;;;;;6.50;3.05;;;19.00;99.90;;;;;;5024472;28;20029;-84
2023/09/27 10:46:22;;;;;;;4.97;2.50;;;19.00;99.90;;;;;;5006993;28;20029;-86
2023/09/27 10:49:00;;;;;;;6.38;2.35;;;19.10;99.90;;;;;;5002887;28;20025;-83
2023/09/27 10:51:26;;;;;;;3.33;2.28;;;19.30;99.90;;;;;;5025436;28;20421;-86
2023/09/27 10:53:55;;;;;;;4.78;2.08;;;19.40;99.90;;;;;;5027887;28;20513;-83
2023/09/27 10:56:21;;;;;;;5.45;3.15;;;19.50;99.90;;;;;;5002179;28;20589;-84
2023/09/27 10:58:49;;;;;;;7.60;2.83;;;19.60;99.90;;;;;;5027408;28;20033;-87
2023/09/27 11:01:25;;;;;;;11.73;2.58;;;19.70;99.90;;;;;;5025709;28;20044;-83
2023/09/27 11:04:01;;;;;;;6.18;2.58;;;19.80;99.90;;;;;;5004785;28;20056;-85
2023/09/27 11:06:28;;;;;;;4.55;2.25;;;19.90;99.90;;;;;;5020166;28;20123;-86
2023/09/27 11:09:12;;;;;;;10.23;2.65;;;20.00;99.90;;;;;;5035806;28;20603;-87
2023/09/27 11:11:38;;;;;;;5.63;2.40;;;20.20;99.90;;;;;;5006456;28;20033;-82
2023/09/27 11:14:04;;;;;;;4.38;2.45;;;20.30;99.90;;;;;;5030277;28;20040;-81
2023/09/27 11:16:30;;;;;;;4.43;2.25;;;20.40;99.90;;;;;;5031330;28;20037;-87
2023/09/27 11:18:56;;;;;;;6.55;2.47;;;20.50;99.90;;;;;;5010880;28;20044;-83
2023/09/27 11:21:26;;;;;;;8.57;2.28;;;20.60;99.90;;;;;;5028181;28;20033;-85
2023/09/27 11:23:59;;;;;;;3.80;2.30;;;20.70;99.90;;;;;;5028259;28;20041;-82
2023/09/27 11:26:29;;;;;;;6.68;2.25;;;20.80;99.90;;;;;;5011254;28;20037;-85
2023/09/27 11:29:07;;;;;;;4.90;1.98;;;21.00;99.90;;;;;;5028373;28;20116;-84
2023/09/27 11:31:37;;;;;;;3.58;2.33;;;21.30;99.90;;;;;;5004525;28;20026;-82
2023/09/27 11:34:19;;;;;;;4.75;2.00;;;21.40;99.90;;;;;;5028555;28;20040;-81
2023/09/27 11:36:53;;;;;;;9.18;2.63;;;21.60;99.90;;;;;;5027112;28;20112;-84
2023/09/27 11:39:46;;;;;;;2.95;2.05;;;21.80;99.90;;;;;;5010646;28;20127;-85
2023/09/27 11:42:19;;;;;;;2.63;1.70;;;21.90;99.90;;;;;;5028235;28;20063;-81
2023/09/27 11:44:45;;;;;;;7.82;2.28;;;22.00;99.90;;;;;;5011381;28;20749;-83
2023/09/27 11:47:10;;;;;;;5.10;2.00;;;22.00;99.90;;;;;;5028150;28;20026;-85
2023/09/27 11:49:36;;;;;;;3.88;2.25;;;22.00;99.90;;;;;;5003007;28;20079;-82
2023/09/27 11:52:10;;;;;;;7.15;2.40;;;22.00;99.90;;;;;;5010385;28;20038;-85
2023/09/27 11:54:45;;;;;;;3.15;1.63;;;22.00;99.90;;;;;;5004162;28;20037;-84
2023/09/27 11:57:13;;;;;;;4.90;2.10;;;22.00;99.90;;;;;;5020922;28;20557;-84
2023/09/27 11:59:40;;;;;;;6.13;1.80;;;22.00;99.90;;;;;;5003697;28;20467;-82
2023/09/27 12:02:08;;;;;;;4.43;1.77;;;22.00;99.90;;;;;;5026413;28;20063;-81
2023/09/27 12:04:34;;;;;;;6.72;2.35;;;22.10;99.90;;;;;;5006146;28;20022;-82
2023/09/27 12:06:59;;;;;;;3.53;2.10;;;22.20;99.90;;;;;;5009623;28;20520;-80
2023/09/27 12:09:25;;;;;;;4.47;1.70;;;22.30;99.90;;;;;;5009612;28;20501;-84
2023/09/27 12:11:53;;;;;;;4.43;1.85;;;22.30;99.90;;;;;;5011159;28;20068;-84
2023/09/27 12:14:23;;;;;;;5.00;2.10;;;22.40;99.90;;;;;;5020535;28;20033;-86
2023/09/27 12:16:49;;;;;;;3.65;1.52;;;22.40;99.90;;;;;;5027827;28;20452;-82
2023/09/27 12:19:15;;;;;;;3.33;1.55;;;22.40;99.90;;;;;;5034864;28;20056;-86
2023/09/27 12:21:43;;;;;;;2.63;1.63;;;22.50;99.90;;;;;;5009671;28;20063;-83
2023/09/27 12:24:08;;;;;;;3.83;1.80;;;22.60;99.90;;;;;;5029564;28;20029;-86
2023/09/27 12:26:35;;;;;;;3.60;1.55;;;22.60;99.90;;;;;;5020543;28;20033;-81
2023/09/27 12:29:02;;;;;;;8.32;2.03;;;22.70;99.90;;;;;;5027573;28;20029;-83
2023/09/27 12:31:28;;;;;;;2.83;1.90;;;22.70;99.90;;;;;;5027187;28;20037;-81
2023/09/27 12:33:56;;;;;;;4.40;1.58;;;22.80;99.90;;;;;;5026530;28;20122;-85
2023/09/27 12:36:22;;;;;;;4.10;1.60;;;22.80;99.90;;;;;;5026458;28;20033;-86
2023/09/27 12:38:47;;;;;;;4.70;1.73;;;22.70;99.90;;;;;;5026682;28;20090;-84
2023/09/27 12:41:13;;;;;;;5.25;1.85;;;22.70;99.90;;;;;;5026570;28;20037;-82
2023/09/27 12:43:40;;;;;;;4.22;1.58;;;22.80;99.90;;;;;;5026367;28;20029;-84
2023/09/27 12:46:06;;;;;;;4.47;1.88;;;22.90;99.90;;;;;;5042933;28;20025;-85
2023/09/27 12:48:32;;;;;;;5.82;1.30;;;23.00;99.90;;;;;;5025944;28;20037;-81